sensor_id;sensor_type;location;lat;lon;timestamp;P1;durP1;ratioP1;P2;durP2;ratioP2
10727;SDS011;5415;59.322;18.246;2022-08-19T00:01:22;50.73;;;29.43;;
10727;SDS011;5415;59.322;18.246;2022-08-19T00:03:50;45.30;;;28.97;;
10727;SDS011;5415;59.322;18.246;2022-08-19T00:06:17;50.20;;;29.67;;
10727;SDS011;5415;59.322;18.246;2022-08-19T00:08:45;45.30;;;28.60;;
10727;SDS011;5415;59.322;18.246;2022-08-19T00:11:13;42.87;;;28.83;;
10727;SDS011;5415;59.322;18.246;2022-08-19T00:13:42;43.97;;;28.50;;
10727;SDS011;5415;59.322;18.246;2022-08-19T00:16:10;46.43;;;29.50;;
10727;SDS011;5415;59.322;18.246;2022-08-19T00:18:38;53.27;;;30.90;;
10727;SDS011;5415;59.322;18.246;2022-08-19T00:21:05;48.90;;;31.57;;
10727;SDS011;5415;59.322;18.246;2022-08-19T00:23:34;48.47;;;31.77;;
10727;SDS011;5415;59.322;18.246;2022-08-19T00:26:02;54.27;;;31.43;;
10727;SDS011;5415;59.322;18.246;2022-08-19T00:28:30;58.03;;;34.20;;
10727;SDS011;5415;59.322;18.246;2022-08-19T00:30:59;50.70;;;32.60;;
10727;SDS011;5415;59.322;18.246;2022-08-19T00:33:27;61.53;;;34.03;;
10727;SDS011;5415;59.322;18.246;2022-08-19T00:35:55;55.70;;;34.27;;
10727;SDS011;5415;59.322;18.246;2022-08-19T00:38:23;53.83;;;33.93;;
10727;SDS011;5415;59.322;18.246;2022-08-19T00:40:50;56.40;;;34.27;;
10727;SDS011;5415;59.322;18.246;2022-08-19T00:43:18;55.50;;;34.30;;
10727;SDS011;5415;59.322;18.246;2022-08-19T00:45:47;53.17;;;35.97;;
10727;SDS011;5415;59.322;18.246;2022-08-19T00:48:17;52.67;;;34.97;;
10727;SDS011;5415;59.322;18.246;2022-08-19T00:50:45;48.87;;;34.87;;
10727;SDS011;5415;59.322;18.246;2022-08-19T00:53:12;52.37;;;34.57;;
10727;SDS011;5415;59.322;18.246;2022-08-19T00:55:42;50.80;;;34.13;;
10727;SDS011;5415;59.322;18.246;2022-08-19T00:58:12;49.10;;;34.30;;
10727;SDS011;5415;59.322;18.246;2022-08-19T01:00:41;47.30;;;33.60;;
10727;SDS011;5415;59.322;18.246;2022-08-19T01:03:09;51.97;;;36.30;;
10727;SDS011;5415;59.322;18.246;2022-08-19T01:05:39;50.93;;;34.47;;
10727;SDS011;5415;59.322;18.246;2022-08-19T01:08:08;46.70;;;33.93;;
10727;SDS011;5415;59.322;18.246;2022-08-19T01:10:37;52.60;;;35.70;;
10727;SDS011;5415;59.322;18.246;2022-08-19T01:13:06;44.90;;;34.27;;
10727;SDS011;5415;59.322;18.246;2022-08-19T01:15:34;46.87;;;34.40;;
10727;SDS011;5415;59.322;18.246;2022-08-19T01:18:04;47.27;;;35.17;;
10727;SDS011;5415;59.322;18.246;2022-08-19T01:20:32;40.40;;;31.87;;
10727;SDS011;5415;59.322;18.246;2022-08-19T01:23:01;51.70;;;34.27;;
10727;SDS011;5415;59.322;18.246;2022-08-19T01:25:29;53.43;;;34.97;;
10727;SDS011;5415;59.322;18.246;2022-08-19T01:27:58;44.50;;;32.17;;
10727;SDS011;5415;59.322;18.246;2022-08-19T01:30:30;51.20;;;34.67;;
10727;SDS011;5415;59.322;18.246;2022-08-19T01:32:58;44.37;;;33.97;;
10727;SDS011;5415;59.322;18.246;2022-08-19T01:35:27;44.47;;;34.07;;
10727;SDS011;5415;59.322;18.246;2022-08-19T01:37:55;41.73;;;32.80;;
10727;SDS011;5415;59.322;18.246;2022-08-19T01:40:25;42.33;;;33.27;;
10727;SDS011;5415;59.322;18.246;2022-08-19T01:42:54;42.70;;;32.73;;
10727;SDS011;5415;59.322;18.246;2022-08-19T01:45:22;39.30;;;33.10;;
10727;SDS011;5415;59.322;18.246;2022-08-19T01:47:51;41.90;;;33.37;;
10727;SDS011;5415;59.322;18.246;2022-08-19T01:50:18;41.93;;;32.87;;
10727;SDS011;5415;59.322;18.246;2022-08-19T01:52:45;41.80;;;33.30;;
10727;SDS011;5415;59.322;18.246;2022-08-19T01:55:14;39.60;;;32.17;;
10727;SDS011;5415;59.322;18.246;2022-08-19T01:57:44;47.73;;;33.60;;
10727;SDS011;5415;59.322;18.246;2022-08-19T02:00:14;43.47;;;33.73;;
10727;SDS011;5415;59.322;18.246;2022-08-19T02:02:42;40.77;;;33.13;;
10727;SDS011;5415;59.322;18.246;2022-08-19T02:05:11;40.93;;;32.60;;
10727;SDS011;5415;59.322;18.246;2022-08-19T02:07:40;40.13;;;32.10;;
10727;SDS011;5415;59.322;18.246;2022-08-19T02:10:08;39.23;;;30.83;;
10727;SDS011;5415;59.322;18.246;2022-08-19T02:12:36;43.83;;;33.60;;
10727;SDS011;5415;59.322;18.246;2022-08-19T02:15:07;42.40;;;33.00;;
10727;SDS011;5415;59.322;18.246;2022-08-19T02:17:35;42.37;;;32.87;;
10727;SDS011;5415;59.322;18.246;2022-08-19T02:20:04;39.37;;;32.67;;
10727;SDS011;5415;59.322;18.246;2022-08-19T02:22:32;47.43;;;34.17;;
10727;SDS011;5415;59.322;18.246;2022-08-19T02:25:00;46.40;;;34.07;;
10727;SDS011;5415;59.322;18.246;2022-08-19T02:27:29;47.00;;;34.40;;
10727;SDS011;5415;59.322;18.246;2022-08-19T02:29:57;48.03;;;35.13;;
10727;SDS011;5415;59.322;18.246;2022-08-19T02:32:27;38.53;;;31.33;;
10727;SDS011;5415;59.322;18.246;2022-08-19T02:34:55;40.80;;;34.03;;
10727;SDS011;5415;59.322;18.246;2022-08-19T02:37:22;50.10;;;35.57;;
10727;SDS011;5415;59.322;18.246;2022-08-19T02:40:20;49.90;;;35.70;;
10727;SDS011;5415;59.322;18.246;2022-08-19T02:42:48;44.77;;;34.03;;
10727;SDS011;5415;59.322;18.246;2022-08-19T02:45:16;49.03;;;33.07;;
10727;SDS011;5415;59.322;18.246;2022-08-19T02:47:45;38.77;;;29.47;;
10727;SDS011;5415;59.322;18.246;2022-08-19T02:50:12;35.10;;;29.80;;
10727;SDS011;5415;59.322;18.246;2022-08-19T02:52:40;37.00;;;29.63;;
10727;SDS011;5415;59.322;18.246;2022-08-19T02:55:07;37.60;;;31.30;;
10727;SDS011;5415;59.322;18.246;2022-08-19T02:57:35;44.67;;;33.40;;
10727;SDS011;5415;59.322;18.246;2022-08-19T03:00:04;43.37;;;34.07;;
10727;SDS011;5415;59.322;18.246;2022-08-19T03:02:31;46.73;;;34.27;;
10727;SDS011;5415;59.322;18.246;2022-08-19T03:05:00;51.87;;;35.80;;
10727;SDS011;5415;59.322;18.246;2022-08-19T03:07:29;51.63;;;35.93;;
10727;SDS011;5415;59.322;18.246;2022-08-19T03:09:56;54.53;;;34.97;;
10727;SDS011;5415;59.322;18.246;2022-08-19T03:12:24;47.57;;;35.70;;
10727;SDS011;5415;59.322;18.246;2022-08-19T03:14:51;51.60;;;35.57;;
10727;SDS011;5415;59.322;18.246;2022-08-19T03:17:19;53.13;;;36.87;;
10727;SDS011;5415;59.322;18.246;2022-08-19T03:19:48;49.03;;;35.13;;
10727;SDS011;5415;59.322;18.246;2022-08-19T03:22:17;51.50;;;36.13;;
10727;SDS011;5415;59.322;18.246;2022-08-19T03:24:44;59.27;;;36.07;;
10727;SDS011;5415;59.322;18.246;2022-08-19T03:27:11;54.93;;;36.53;;
10727;SDS011;5415;59.322;18.246;2022-08-19T03:29:39;62.57;;;37.93;;
10727;SDS011;5415;59.322;18.246;2022-08-19T03:32:06;56.07;;;35.47;;
10727;SDS011;5415;59.322;18.246;2022-08-19T03:34:36;65.00;;;37.90;;
10727;SDS011;5415;59.322;18.246;2022-08-19T03:37:05;60.43;;;36.60;;
10727;SDS011;5415;59.322;18.246;2022-08-19T03:39:37;60.57;;;38.30;;
10727;SDS011;5415;59.322;18.246;2022-08-19T03:42:04;61.90;;;37.80;;
10727;SDS011;5415;59.322;18.246;2022-08-19T03:44:32;66.37;;;37.67;;
10727;SDS011;5415;59.322;18.246;2022-08-19T03:47:01;64.53;;;35.77;;
10727;SDS011;5415;59.322;18.246;2022-08-19T03:49:29;55.63;;;36.80;;
10727;SDS011;5415;59.322;18.246;2022-08-19T03:51:58;61.03;;;38.37;;
10727;SDS011;5415;59.322;18.246;2022-08-19T03:54:28;61.73;;;38.67;;
10727;SDS011;5415;59.322;18.246;2022-08-19T03:56:57;60.80;;;37.40;;
10727;SDS011;5415;59.322;18.246;2022-08-19T03:59:25;60.40;;;39.63;;
10727;SDS011;5415;59.322;18.246;2022-08-19T04:01:54;63.40;;;38.90;;
10727;SDS011;5415;59.322;18.246;2022-08-19T04:04:21;65.07;;;39.70;;
10727;SDS011;5415;59.322;18.246;2022-08-19T04:06:50;53.47;;;36.53;;
10727;SDS011;5415;59.322;18.246;2022-08-19T04:09:18;57.57;;;37.23;;
10727;SDS011;5415;59.322;18.246;2022-08-19T04:11:48;148.00;;;35.37;;
10727;SDS011;5415;59.322;18.246;2022-08-19T04:14:19;57.93;;;34.50;;
10727;SDS011;5415;59.322;18.246;2022-08-19T04:16:48;49.80;;;35.10;;
10727;SDS011;5415;59.322;18.246;2022-08-19T04:19:16;49.70;;;33.50;;
10727;SDS011;5415;59.322;18.246;2022-08-19T04:21:46;57.63;;;35.27;;
10727;SDS011;5415;59.322;18.246;2022-08-19T04:24:16;50.93;;;34.57;;
10727;SDS011;5415;59.322;18.246;2022-08-19T04:26:43;53.07;;;35.53;;
10727;SDS011;5415;59.322;18.246;2022-08-19T04:29:12;47.10;;;34.33;;
10727;SDS011;5415;59.322;18.246;2022-08-19T04:31:41;47.80;;;33.03;;
10727;SDS011;5415;59.322;18.246;2022-08-19T04:34:10;48.27;;;33.27;;
10727;SDS011;5415;59.322;18.246;2022-08-19T04:36:38;49.60;;;33.40;;
10727;SDS011;5415;59.322;18.246;2022-08-19T04:39:07;43.20;;;32.20;;
10727;SDS011;5415;59.322;18.246;2022-08-19T04:41:35;42.43;;;29.97;;
10727;SDS011;5415;59.322;18.246;2022-08-19T04:44:21;42.27;;;30.73;;
10727;SDS011;5415;59.322;18.246;2022-08-19T04:46:50;39.50;;;28.03;;
10727;SDS011;5415;59.322;18.246;2022-08-19T04:49:19;38.77;;;28.30;;
10727;SDS011;5415;59.322;18.246;2022-08-19T04:51:47;37.80;;;27.87;;
10727;SDS011;5415;59.322;18.246;2022-08-19T04:54:15;42.60;;;28.33;;
10727;SDS011;5415;59.322;18.246;2022-08-19T04:56:43;45.17;;;29.23;;
10727;SDS011;5415;59.322;18.246;2022-08-19T04:59:10;41.50;;;29.70;;
10727;SDS011;5415;59.322;18.246;2022-08-19T05:01:38;40.73;;;30.17;;
10727;SDS011;5415;59.322;18.246;2022-08-19T05:04:07;40.07;;;28.00;;
10727;SDS011;5415;59.322;18.246;2022-08-19T05:06:35;39.97;;;27.47;;
10727;SDS011;5415;59.322;18.246;2022-08-19T05:09:03;41.57;;;27.37;;
10727;SDS011;5415;59.322;18.246;2022-08-19T05:11:31;42.03;;;28.17;;
10727;SDS011;5415;59.322;18.246;2022-08-19T05:13:59;36.23;;;26.27;;
10727;SDS011;5415;59.322;18.246;2022-08-19T05:16:26;30.40;;;24.00;;
10727;SDS011;5415;59.322;18.246;2022-08-19T05:18:54;25.83;;;20.30;;
10727;SDS011;5415;59.322;18.246;2022-08-19T05:21:41;25.27;;;19.70;;
10727;SDS011;5415;59.322;18.246;2022-08-19T05:24:28;24.17;;;19.77;;
10727;SDS011;5415;59.322;18.246;2022-08-19T05:27:00;24.47;;;20.23;;
10727;SDS011;5415;59.322;18.246;2022-08-19T05:29:30;25.53;;;19.77;;
10727;SDS011;5415;59.322;18.246;2022-08-19T05:32:00;25.97;;;19.67;;
10727;SDS011;5415;59.322;18.246;2022-08-19T05:34:30;27.57;;;20.33;;
10727;SDS011;5415;59.322;18.246;2022-08-19T05:37:00;25.03;;;19.37;;
10727;SDS011;5415;59.322;18.246;2022-08-19T05:39:32;27.70;;;19.97;;
10727;SDS011;5415;59.322;18.246;2022-08-19T05:42:01;22.83;;;19.17;;
10727;SDS011;5415;59.322;18.246;2022-08-19T05:44:30;25.93;;;19.60;;
10727;SDS011;5415;59.322;18.246;2022-08-19T05:47:00;24.67;;;18.60;;
10727;SDS011;5415;59.322;18.246;2022-08-19T05:49:28;23.10;;;18.37;;
10727;SDS011;5415;59.322;18.246;2022-08-19T05:51:55;20.53;;;16.83;;
10727;SDS011;5415;59.322;18.246;2022-08-19T05:54:27;21.60;;;17.33;;
10727;SDS011;5415;59.322;18.246;2022-08-19T05:56:55;23.40;;;16.60;;
10727;SDS011;5415;59.322;18.246;2022-08-19T05:59:22;22.30;;;16.03;;
10727;SDS011;5415;59.322;18.246;2022-08-19T06:01:50;20.93;;;15.23;;
10727;SDS011;5415;59.322;18.246;2022-08-19T06:04:19;20.83;;;13.43;;
10727;SDS011;5415;59.322;18.246;2022-08-19T06:06:48;15.43;;;13.27;;
10727;SDS011;5415;59.322;18.246;2022-08-19T06:09:17;16.57;;;12.00;;
10727;SDS011;5415;59.322;18.246;2022-08-19T06:11:46;16.77;;;11.97;;
10727;SDS011;5415;59.322;18.246;2022-08-19T06:14:16;13.53;;;11.77;;
10727;SDS011;5415;59.322;18.246;2022-08-19T06:16:45;13.63;;;10.50;;
10727;SDS011;5415;59.322;18.246;2022-08-19T06:19:14;12.87;;;9.73;;
10727;SDS011;5415;59.322;18.246;2022-08-19T06:21:42;15.43;;;9.60;;
10727;SDS011;5415;59.322;18.246;2022-08-19T06:24:11;13.13;;;9.10;;
10727;SDS011;5415;59.322;18.246;2022-08-19T06:26:39;12.77;;;9.33;;
10727;SDS011;5415;59.322;18.246;2022-08-19T06:29:09;13.43;;;8.17;;
10727;SDS011;5415;59.322;18.246;2022-08-19T06:31:37;10.33;;;8.37;;
10727;SDS011;5415;59.322;18.246;2022-08-19T06:34:08;14.43;;;8.30;;
10727;SDS011;5415;59.322;18.246;2022-08-19T06:36:37;13.03;;;8.10;;
10727;SDS011;5415;59.322;18.246;2022-08-19T06:39:06;13.33;;;8.17;;
10727;SDS011;5415;59.322;18.246;2022-08-19T06:41:34;16.47;;;8.50;;
10727;SDS011;5415;59.322;18.246;2022-08-19T06:44:02;12.33;;;7.50;;
10727;SDS011;5415;59.322;18.246;2022-08-19T06:46:31;11.80;;;7.40;;
10727;SDS011;5415;59.322;18.246;2022-08-19T06:48:59;13.67;;;7.30;;
10727;SDS011;5415;59.322;18.246;2022-08-19T06:51:26;11.23;;;7.83;;
10727;SDS011;5415;59.322;18.246;2022-08-19T06:53:56;9.70;;;6.57;;
10727;SDS011;5415;59.322;18.246;2022-08-19T06:56:25;9.20;;;6.83;;
10727;SDS011;5415;59.322;18.246;2022-08-19T06:58:56;9.17;;;6.27;;
10727;SDS011;5415;59.322;18.246;2022-08-19T07:01:23;13.47;;;5.90;;
10727;SDS011;5415;59.322;18.246;2022-08-19T07:03:52;11.67;;;6.30;;
10727;SDS011;5415;59.322;18.246;2022-08-19T07:06:20;9.70;;;5.90;;
10727;SDS011;5415;59.322;18.246;2022-08-19T07:08:47;11.80;;;6.17;;
10727;SDS011;5415;59.322;18.246;2022-08-19T07:11:16;11.73;;;5.77;;
10727;SDS011;5415;59.322;18.246;2022-08-19T07:13:44;11.47;;;5.83;;
10727;SDS011;5415;59.322;18.246;2022-08-19T07:16:14;10.83;;;5.63;;
10727;SDS011;5415;59.322;18.246;2022-08-19T07:18:41;9.73;;;5.53;;
10727;SDS011;5415;59.322;18.246;2022-08-19T07:21:11;10.70;;;5.67;;
10727;SDS011;5415;59.322;18.246;2022-08-19T07:23:39;10.97;;;6.07;;
10727;SDS011;5415;59.322;18.246;2022-08-19T07:26:06;12.27;;;5.67;;
10727;SDS011;5415;59.322;18.246;2022-08-19T07:28:33;8.53;;;6.07;;
10727;SDS011;5415;59.322;18.246;2022-08-19T07:31:04;11.90;;;5.90;;
10727;SDS011;5415;59.322;18.246;2022-08-19T07:33:32;12.07;;;6.10;;
10727;SDS011;5415;59.322;18.246;2022-08-19T07:36:01;7.83;;;5.90;;
10727;SDS011;5415;59.322;18.246;2022-08-19T07:38:32;7.20;;;5.80;;
10727;SDS011;5415;59.322;18.246;2022-08-19T07:40:59;10.47;;;5.77;;
10727;SDS011;5415;59.322;18.246;2022-08-19T07:43:28;10.47;;;5.60;;
10727;SDS011;5415;59.322;18.246;2022-08-19T07:45:55;9.60;;;5.53;;
10727;SDS011;5415;59.322;18.246;2022-08-19T07:48:24;9.07;;;5.60;;
10727;SDS011;5415;59.322;18.246;2022-08-19T07:50:52;11.00;;;5.80;;
10727;SDS011;5415;59.322;18.246;2022-08-19T07:53:19;7.77;;;4.70;;
10727;SDS011;5415;59.322;18.246;2022-08-19T07:55:48;7.20;;;5.33;;
10727;SDS011;5415;59.322;18.246;2022-08-19T07:58:18;9.43;;;4.80;;
10727;SDS011;5415;59.322;18.246;2022-08-19T08:00:46;10.80;;;5.07;;
10727;SDS011;5415;59.322;18.246;2022-08-19T08:03:15;10.47;;;5.43;;
10727;SDS011;5415;59.322;18.246;2022-08-19T08:05:43;10.07;;;5.17;;
10727;SDS011;5415;59.322;18.246;2022-08-19T08:08:30;8.47;;;5.20;;
10727;SDS011;5415;59.322;18.246;2022-08-19T08:11:18;10.03;;;5.60;;
10727;SDS011;5415;59.322;18.246;2022-08-19T08:13:47;9.53;;;4.60;;
10727;SDS011;5415;59.322;18.246;2022-08-19T08:16:17;10.00;;;5.17;;
10727;SDS011;5415;59.322;18.246;2022-08-19T08:18:45;10.90;;;5.20;;
10727;SDS011;5415;59.322;18.246;2022-08-19T08:21:13;12.27;;;5.27;;
10727;SDS011;5415;59.322;18.246;2022-08-19T08:23:40;7.37;;;5.03;;
10727;SDS011;5415;59.322;18.246;2022-08-19T08:26:09;8.83;;;5.40;;
10727;SDS011;5415;59.322;18.246;2022-08-19T08:28:39;11.10;;;5.30;;
10727;SDS011;5415;59.322;18.246;2022-08-19T08:31:07;10.23;;;5.33;;
10727;SDS011;5415;59.322;18.246;2022-08-19T08:33:35;7.90;;;5.27;;
10727;SDS011;5415;59.322;18.246;2022-08-19T08:36:04;9.83;;;5.20;;
10727;SDS011;5415;59.322;18.246;2022-08-19T08:38:32;10.50;;;4.67;;
10727;SDS011;5415;59.322;18.246;2022-08-19T08:41:00;11.27;;;5.07;;
10727;SDS011;5415;59.322;18.246;2022-08-19T08:43:32;6.90;;;4.63;;
10727;SDS011;5415;59.322;18.246;2022-08-19T08:46:03;8.77;;;4.80;;
10727;SDS011;5415;59.322;18.246;2022-08-19T08:48:34;10.07;;;5.23;;
10727;SDS011;5415;59.322;18.246;2022-08-19T08:51:03;11.37;;;5.10;;
10727;SDS011;5415;59.322;18.246;2022-08-19T08:53:32;9.57;;;5.13;;
10727;SDS011;5415;59.322;18.246;2022-08-19T08:56:00;12.47;;;4.80;;
10727;SDS011;5415;59.322;18.246;2022-08-19T08:58:30;9.53;;;4.67;;
10727;SDS011;5415;59.322;18.246;2022-08-19T09:01:05;10.47;;;5.20;;
10727;SDS011;5415;59.322;18.246;2022-08-19T09:03:32;11.47;;;4.57;;
10727;SDS011;5415;59.322;18.246;2022-08-19T09:06:00;8.23;;;5.57;;
10727;SDS011;5415;59.322;18.246;2022-08-19T09:08:32;9.67;;;5.10;;
10727;SDS011;5415;59.322;18.246;2022-08-19T09:11:03;9.90;;;5.47;;
10727;SDS011;5415;59.322;18.246;2022-08-19T09:13:35;11.77;;;5.30;;
10727;SDS011;5415;59.322;18.246;2022-08-19T09:16:07;11.70;;;5.23;;
10727;SDS011;5415;59.322;18.246;2022-08-19T09:18:40;13.07;;;5.10;;
10727;SDS011;5415;59.322;18.246;2022-08-19T09:21:08;6.87;;;4.67;;
10727;SDS011;5415;59.322;18.246;2022-08-19T09:23:36;7.83;;;4.73;;
10727;SDS011;5415;59.322;18.246;2022-08-19T09:26:06;11.07;;;4.87;;
10727;SDS011;5415;59.322;18.246;2022-08-19T09:28:34;12.30;;;4.90;;
10727;SDS011;5415;59.322;18.246;2022-08-19T09:31:02;6.73;;;4.80;;
10727;SDS011;5415;59.322;18.246;2022-08-19T09:33:31;10.67;;;5.13;;
10727;SDS011;5415;59.322;18.246;2022-08-19T09:36:03;8.53;;;4.50;;
10727;SDS011;5415;59.322;18.246;2022-08-19T09:38:31;9.77;;;4.80;;
10727;SDS011;5415;59.322;18.246;2022-08-19T09:41:02;10.40;;;4.90;;
10727;SDS011;5415;59.322;18.246;2022-08-19T09:43:30;13.30;;;5.20;;
10727;SDS011;5415;59.322;18.246;2022-08-19T09:45:57;11.20;;;5.27;;
10727;SDS011;5415;59.322;18.246;2022-08-19T09:48:25;13.27;;;4.83;;
10727;SDS011;5415;59.322;18.246;2022-08-19T09:50:54;8.27;;;4.90;;
10727;SDS011;5415;59.322;18.246;2022-08-19T09:53:23;10.20;;;4.93;;
10727;SDS011;5415;59.322;18.246;2022-08-19T09:55:50;10.07;;;5.30;;
10727;SDS011;5415;59.322;18.246;2022-08-19T09:58:18;8.47;;;4.77;;
10727;SDS011;5415;59.322;18.246;2022-08-19T10:00:45;10.43;;;4.83;;
10727;SDS011;5415;59.322;18.246;2022-08-19T10:03:13;9.30;;;5.10;;
10727;SDS011;5415;59.322;18.246;2022-08-19T10:05:40;8.87;;;4.33;;
10727;SDS011;5415;59.322;18.246;2022-08-19T10:08:19;8.47;;;5.10;;
10727;SDS011;5415;59.322;18.246;2022-08-19T10:10:47;10.63;;;5.00;;
10727;SDS011;5415;59.322;18.246;2022-08-19T10:13:16;6.70;;;4.60;;
10727;SDS011;5415;59.322;18.246;2022-08-19T10:15:46;11.10;;;5.10;;
10727;SDS011;5415;59.322;18.246;2022-08-19T10:18:16;9.27;;;5.17;;
10727;SDS011;5415;59.322;18.246;2022-08-19T10:20:45;7.83;;;5.20;;
10727;SDS011;5415;59.322;18.246;2022-08-19T10:23:13;6.63;;;5.00;;
10727;SDS011;5415;59.322;18.246;2022-08-19T10:25:42;6.10;;;4.47;;
10727;SDS011;5415;59.322;18.246;2022-08-19T10:28:10;11.37;;;5.30;;
10727;SDS011;5415;59.322;18.246;2022-08-19T10:30:38;7.60;;;4.87;;
10727;SDS011;5415;59.322;18.246;2022-08-19T10:33:06;11.23;;;5.00;;
10727;SDS011;5415;59.322;18.246;2022-08-19T10:35:33;9.70;;;5.33;;
10727;SDS011;5415;59.322;18.246;2022-08-19T10:38:01;7.50;;;4.97;;
10727;SDS011;5415;59.322;18.246;2022-08-19T10:40:29;6.83;;;4.93;;
10727;SDS011;5415;59.322;18.246;2022-08-19T10:42:58;6.93;;;4.60;;
10727;SDS011;5415;59.322;18.246;2022-08-19T10:45:25;8.47;;;5.00;;
10727;SDS011;5415;59.322;18.246;2022-08-19T10:47:54;7.17;;;5.23;;
10727;SDS011;5415;59.322;18.246;2022-08-19T10:50:21;7.27;;;4.70;;
10727;SDS011;5415;59.322;18.246;2022-08-19T10:53:07;11.10;;;4.57;;
10727;SDS011;5415;59.322;18.246;2022-08-19T10:55:35;9.20;;;5.00;;
10727;SDS011;5415;59.322;18.246;2022-08-19T10:58:21;7.80;;;4.90;;
10727;SDS011;5415;59.322;18.246;2022-08-19T11:00:53;7.60;;;4.73;;
10727;SDS011;5415;59.322;18.246;2022-08-19T11:03:21;7.23;;;4.90;;
10727;SDS011;5415;59.322;18.246;2022-08-19T11:05:56;8.63;;;4.60;;
10727;SDS011;5415;59.322;18.246;2022-08-19T11:08:24;7.27;;;4.90;;
10727;SDS011;5415;59.322;18.246;2022-08-19T11:10:52;10.80;;;5.10;;
10727;SDS011;5415;59.322;18.246;2022-08-19T11:13:25;5.80;;;4.80;;
10727;SDS011;5415;59.322;18.246;2022-08-19T11:15:57;11.03;;;5.33;;
10727;SDS011;5415;59.322;18.246;2022-08-19T11:18:25;7.60;;;5.30;;
10727;SDS011;5415;59.322;18.246;2022-08-19T11:20:52;7.20;;;5.20;;
10727;SDS011;5415;59.322;18.246;2022-08-19T11:23:19;9.57;;;5.10;;
10727;SDS011;5415;59.322;18.246;2022-08-19T11:25:47;5.70;;;5.03;;
10727;SDS011;5415;59.322;18.246;2022-08-19T11:28:14;7.53;;;4.90;;
10727;SDS011;5415;59.322;18.246;2022-08-19T11:30:44;9.53;;;4.70;;
10727;SDS011;5415;59.322;18.246;2022-08-19T11:33:11;8.90;;;5.47;;
10727;SDS011;5415;59.322;18.246;2022-08-19T11:35:39;8.90;;;5.10;;
10727;SDS011;5415;59.322;18.246;2022-08-19T11:38:07;9.20;;;5.10;;
10727;SDS011;5415;59.322;18.246;2022-08-19T11:40:34;7.23;;;4.63;;
10727;SDS011;5415;59.322;18.246;2022-08-19T11:43:01;8.80;;;5.30;;
10727;SDS011;5415;59.322;18.246;2022-08-19T11:45:29;5.73;;;5.13;;
10727;SDS011;5415;59.322;18.246;2022-08-19T11:48:00;7.30;;;5.20;;
10727;SDS011;5415;59.322;18.246;2022-08-19T11:50:27;8.63;;;5.23;;
10727;SDS011;5415;59.322;18.246;2022-08-19T11:52:56;9.23;;;5.00;;
10727;SDS011;5415;59.322;18.246;2022-08-19T11:55:25;12.23;;;5.10;;
10727;SDS011;5415;59.322;18.246;2022-08-19T11:57:52;8.77;;;5.00;;
10727;SDS011;5415;59.322;18.246;2022-08-19T12:00:20;11.93;;;5.33;;
10727;SDS011;5415;59.322;18.246;2022-08-19T12:02:47;7.63;;;5.07;;
10727;SDS011;5415;59.322;18.246;2022-08-19T12:05:16;7.87;;;5.37;;
10727;SDS011;5415;59.322;18.246;2022-08-19T12:07:44;15.13;;;5.47;;
10727;SDS011;5415;59.322;18.246;2022-08-19T12:10:11;6.93;;;5.10;;
10727;SDS011;5415;59.322;18.246;2022-08-19T12:12:41;7.63;;;4.80;;
10727;SDS011;5415;59.322;18.246;2022-08-19T12:15:12;6.77;;;4.67;;
10727;SDS011;5415;59.322;18.246;2022-08-19T12:17:40;8.77;;;5.27;;
10727;SDS011;5415;59.322;18.246;2022-08-19T12:20:10;8.43;;;5.20;;
10727;SDS011;5415;59.322;18.246;2022-08-19T12:22:39;6.83;;;5.07;;
10727;SDS011;5415;59.322;18.246;2022-08-19T12:25:07;10.20;;;5.10;;
10727;SDS011;5415;59.322;18.246;2022-08-19T12:27:36;9.57;;;5.23;;
10727;SDS011;5415;59.322;18.246;2022-08-19T12:30:05;10.73;;;5.30;;
10727;SDS011;5415;59.322;18.246;2022-08-19T12:32:33;9.17;;;5.37;;
10727;SDS011;5415;59.322;18.246;2022-08-19T12:35:00;10.23;;;4.93;;
10727;SDS011;5415;59.322;18.246;2022-08-19T12:37:29;9.20;;;5.43;;
10727;SDS011;5415;59.322;18.246;2022-08-19T12:39:59;8.07;;;5.23;;
10727;SDS011;5415;59.322;18.246;2022-08-19T12:42:27;7.27;;;5.23;;
10727;SDS011;5415;59.322;18.246;2022-08-19T12:44:55;7.90;;;5.20;;
10727;SDS011;5415;59.322;18.246;2022-08-19T12:47:22;11.23;;;5.43;;
10727;SDS011;5415;59.322;18.246;2022-08-19T12:49:51;9.77;;;5.33;;
10727;SDS011;5415;59.322;18.246;2022-08-19T12:52:19;8.27;;;5.37;;
10727;SDS011;5415;59.322;18.246;2022-08-19T12:54:46;10.17;;;4.87;;
10727;SDS011;5415;59.322;18.246;2022-08-19T12:57:16;39.13;;;8.43;;
10727;SDS011;5415;59.322;18.246;2022-08-19T12:59:43;7.80;;;4.87;;
10727;SDS011;5415;59.322;18.246;2022-08-19T13:02:11;7.63;;;5.03;;
10727;SDS011;5415;59.322;18.246;2022-08-19T13:04:38;9.13;;;4.87;;
10727;SDS011;5415;59.322;18.246;2022-08-19T13:07:06;8.70;;;4.80;;
10727;SDS011;5415;59.322;18.246;2022-08-19T13:09:34;9.93;;;5.10;;
10727;SDS011;5415;59.322;18.246;2022-08-19T13:12:02;7.40;;;4.70;;
10727;SDS011;5415;59.322;18.246;2022-08-19T13:14:34;14.27;;;5.60;;
10727;SDS011;5415;59.322;18.246;2022-08-19T13:17:02;13.40;;;5.47;;
10727;SDS011;5415;59.322;18.246;2022-08-19T13:19:30;10.40;;;5.20;;
10727;SDS011;5415;59.322;18.246;2022-08-19T13:21:57;9.30;;;5.20;;
10727;SDS011;5415;59.322;18.246;2022-08-19T13:24:24;12.20;;;5.00;;
10727;SDS011;5415;59.322;18.246;2022-08-19T13:26:52;10.97;;;5.80;;
10727;SDS011;5415;59.322;18.246;2022-08-19T13:29:20;8.50;;;5.43;;
10727;SDS011;5415;59.322;18.246;2022-08-19T13:32:07;6.87;;;4.77;;
10727;SDS011;5415;59.322;18.246;2022-08-19T13:34:52;8.17;;;5.17;;
10727;SDS011;5415;59.322;18.246;2022-08-19T13:37:19;10.27;;;5.33;;
10727;SDS011;5415;59.322;18.246;2022-08-19T13:40:06;17.73;;;5.47;;
10727;SDS011;5415;59.322;18.246;2022-08-19T13:42:39;11.93;;;5.50;;
10727;SDS011;5415;59.322;18.246;2022-08-19T13:45:07;10.80;;;5.60;;
10727;SDS011;5415;59.322;18.246;2022-08-19T13:47:37;9.40;;;5.80;;
10727;SDS011;5415;59.322;18.246;2022-08-19T13:50:10;12.67;;;5.50;;
10727;SDS011;5415;59.322;18.246;2022-08-19T13:52:38;11.10;;;6.40;;
10727;SDS011;5415;59.322;18.246;2022-08-19T13:55:06;10.70;;;5.73;;
10727;SDS011;5415;59.322;18.246;2022-08-19T13:57:34;6.67;;;5.80;;
10727;SDS011;5415;59.322;18.246;2022-08-19T14:00:06;11.60;;;6.10;;
10727;SDS011;5415;59.322;18.246;2022-08-19T14:02:37;10.90;;;5.83;;
10727;SDS011;5415;59.322;18.246;2022-08-19T14:05:08;13.60;;;5.40;;
10727;SDS011;5415;59.322;18.246;2022-08-19T14:07:36;14.47;;;5.70;;
10727;SDS011;5415;59.322;18.246;2022-08-19T14:10:06;8.87;;;5.70;;
10727;SDS011;5415;59.322;18.246;2022-08-19T14:12:34;9.53;;;5.83;;
10727;SDS011;5415;59.322;18.246;2022-08-19T14:15:02;10.47;;;5.90;;
10727;SDS011;5415;59.322;18.246;2022-08-19T14:17:30;10.70;;;6.37;;
10727;SDS011;5415;59.322;18.246;2022-08-19T14:20:02;9.77;;;5.77;;
10727;SDS011;5415;59.322;18.246;2022-08-19T14:22:34;8.77;;;5.60;;
10727;SDS011;5415;59.322;18.246;2022-08-19T14:25:01;10.87;;;6.03;;
10727;SDS011;5415;59.322;18.246;2022-08-19T14:27:29;6.97;;;5.73;;
10727;SDS011;5415;59.322;18.246;2022-08-19T14:29:57;7.73;;;5.97;;
10727;SDS011;5415;59.322;18.246;2022-08-19T14:32:24;11.00;;;5.80;;
10727;SDS011;5415;59.322;18.246;2022-08-19T14:34:52;10.03;;;5.67;;
10727;SDS011;5415;59.322;18.246;2022-08-19T14:37:22;11.07;;;5.87;;
10727;SDS011;5415;59.322;18.246;2022-08-19T14:39:50;10.67;;;5.90;;
10727;SDS011;5415;59.322;18.246;2022-08-19T14:42:18;8.93;;;5.97;;
10727;SDS011;5415;59.322;18.246;2022-08-19T14:44:45;14.27;;;6.00;;